createdAt,value
2018-03-30T00:00:46.253Z,100.00
2018-03-30T00:03:13.844Z,100.00
2018-03-30T00:05:41.561Z,100.00
2018-03-30T00:08:09.199Z,100.00
2018-03-30T00:10:42.375Z,100.00
2018-03-30T00:13:10.028Z,100.00
2018-03-30T00:15:37.743Z,100.00
2018-03-30T00:18:05.391Z,100.00
2018-03-30T00:20:33.102Z,100.00
2018-03-30T00:23:00.803Z,100.00
2018-03-30T00:25:28.485Z,100.00
2018-03-30T00:27:56.120Z,100.00
2018-03-30T00:30:23.850Z,100.00
2018-03-30T00:32:51.508Z,100.00
2018-03-30T00:35:19.199Z,100.00
2018-03-30T00:37:46.890Z,100.00
2018-03-30T00:40:14.551Z,100.00
2018-03-30T00:42:42.236Z,100.00
2018-03-30T00:45:09.868Z,100.00
2018-03-30T00:47:37.546Z,100.00
2018-03-30T00:50:05.189Z,100.00
2018-03-30T00:52:32.917Z,100.00
2018-03-30T00:55:00.617Z,100.00
2018-03-30T00:57:28.331Z,100.00
2018-03-30T00:59:56.028Z,100.00
2018-03-30T01:02:23.713Z,100.00
2018-03-30T01:04:51.367Z,100.00
2018-03-30T01:07:19.108Z,100.00
2018-03-30T01:09:46.770Z,100.00
2018-03-30T01:12:14.484Z,100.00
2018-03-30T01:14:42.178Z,100.00
2018-03-30T01:17:09.894Z,100.00
2018-03-30T01:19:37.574Z,100.00
2018-03-30T01:22:05.266Z,100.00
2018-03-30T01:24:32.902Z,100.00
2018-03-30T01:27:00.596Z,100.00
2018-03-30T01:29:28.246Z,100.00
2018-03-30T01:31:55.995Z,100.00
2018-03-30T01:34:23.636Z,100.00
2018-03-30T01:36:51.325Z,100.00
2018-03-30T01:39:18.965Z,100.00
2018-03-30T01:41:46.668Z,100.00
2018-03-30T01:44:14.330Z,100.00
2018-03-30T01:46:42.018Z,100.00
2018-03-30T01:49:09.671Z,100.00
2018-03-30T01:51:37.448Z,100.00
2018-03-30T01:54:05.090Z,100.00
2018-03-30T01:56:32.828Z,100.00
2018-03-30T01:59:00.510Z,100.00
2018-03-30T02:01:28.286Z,100.00
2018-03-30T02:03:55.929Z,100.00
2018-03-30T02:06:23.657Z,100.00
2018-03-30T02:08:51.312Z,100.00
2018-03-30T02:11:19.053Z,100.00
2018-03-30T02:13:46.728Z,100.00
2018-03-30T02:16:14.386Z,100.00
2018-03-30T02:18:42.087Z,100.00
2018-03-30T02:21:09.739Z,100.00
2018-03-30T02:23:37.474Z,100.00
2018-03-30T02:26:05.196Z,100.00
2018-03-30T02:28:32.889Z,100.00
2018-03-30T02:31:00.596Z,100.00
2018-03-30T02:33:28.277Z,100.00
2018-03-30T02:35:55.937Z,100.00
2018-03-30T02:38:23.625Z,100.00
2018-03-30T02:40:51.288Z,100.00
2018-03-30T02:43:19.051Z,100.00
2018-03-30T02:45:46.725Z,100.00
2018-03-30T02:48:14.440Z,100.00
2018-03-30T02:50:42.096Z,100.00
2018-03-30T02:53:09.847Z,100.00
2018-03-30T02:55:37.499Z,100.00
2018-03-30T02:58:05.221Z,100.00
2018-03-30T03:00:32.889Z,100.00
2018-03-30T03:03:00.923Z,100.00
2018-03-30T03:05:28.587Z,100.00
2018-03-30T03:07:56.325Z,100.00
2018-03-30T03:10:24.021Z,100.00
2018-03-30T03:12:51.708Z,100.00
2018-03-30T03:15:19.405Z,100.00
2018-03-30T03:17:47.131Z,100.00
2018-03-30T03:20:14.861Z,100.00
2018-03-30T03:22:42.586Z,100.00
2018-03-30T03:25:10.228Z,100.00
2018-03-30T03:27:37.918Z,100.00
2018-03-30T03:30:05.635Z,100.00
2018-03-30T03:32:33.362Z,100.00
2018-03-30T03:35:01.125Z,100.00
2018-03-30T03:37:28.868Z,100.00
2018-03-30T03:39:56.562Z,100.00
2018-03-30T03:42:24.288Z,100.00
2018-03-30T03:44:51.955Z,100.00
2018-03-30T03:47:19.682Z,100.00
2018-03-30T03:49:47.353Z,100.00
2018-03-30T03:52:15.071Z,100.00
2018-03-30T03:54:42.702Z,100.00
2018-03-30T03:57:10.333Z,100.00
2018-03-30T03:59:38.054Z,100.00
2018-03-30T04:02:05.746Z,100.00
2018-03-30T04:04:33.474Z,100.00
2018-03-30T04:07:01.167Z,100.00
2018-03-30T04:09:28.857Z,100.00
2018-03-30T04:11:56.500Z,100.00
2018-03-30T04:14:24.232Z,100.00
2018-03-30T04:16:51.876Z,100.00
2018-03-30T04:19:19.580Z,100.00
2018-03-30T04:21:47.232Z,100.00
2018-03-30T04:24:14.980Z,100.00
2018-03-30T04:26:42.612Z,100.00
2018-03-30T04:29:10.325Z,100.00
2018-03-30T04:31:38.008Z,100.00
2018-03-30T04:34:05.738Z,100.00
2018-03-30T04:36:33.421Z,100.00
2018-03-30T04:39:01.132Z,100.00
2018-03-30T04:41:28.780Z,100.00
2018-03-30T04:43:56.497Z,100.00
2018-03-30T04:46:24.191Z,100.00
2018-03-30T04:48:51.882Z,100.00
2018-03-30T04:51:19.516Z,100.00
2018-03-30T04:53:47.201Z,100.00
2018-03-30T04:56:14.855Z,100.00
2018-03-30T04:58:42.552Z,100.00
2018-03-30T05:01:10.246Z,100.00
2018-03-30T05:03:37.930Z,100.00
2018-03-30T05:06:05.588Z,100.00
2018-03-30T05:08:33.268Z,100.00
2018-03-30T05:11:00.915Z,100.00
2018-03-30T05:13:28.671Z,100.00
2018-03-30T05:15:56.386Z,100.00
2018-03-30T05:18:24.075Z,100.00
2018-03-30T05:20:51.743Z,100.00
2018-03-30T05:23:19.478Z,100.00
2018-03-30T05:25:47.125Z,100.00
2018-03-30T05:28:14.861Z,100.00
2018-03-30T05:30:42.494Z,100.00
2018-03-30T05:33:10.211Z,100.00
2018-03-30T05:35:37.865Z,100.00
2018-03-30T05:38:05.517Z,100.00
2018-03-30T05:40:33.194Z,100.00
2018-03-30T05:43:00.917Z,100.00
2018-03-30T05:45:28.606Z,100.00
2018-03-30T05:47:56.274Z,100.00
2018-03-30T05:50:23.995Z,100.00
2018-03-30T05:52:51.675Z,100.00
2018-03-30T05:55:19.374Z,100.00
2018-03-30T05:57:47.025Z,100.00
2018-03-30T06:00:14.706Z,100.00
2018-03-30T06:02:42.372Z,100.00
2018-03-30T06:05:10.044Z,100.00
2018-03-30T06:07:37.682Z,100.00
2018-03-30T06:10:05.414Z,100.00
2018-03-30T06:12:33.090Z,100.00
2018-03-30T06:15:00.864Z,100.00
2018-03-30T06:17:28.537Z,100.00
2018-03-30T06:19:56.252Z,100.00
2018-03-30T06:22:23.902Z,100.00
2018-03-30T06:24:51.597Z,100.00
2018-03-30T06:27:19.233Z,100.00
2018-03-30T06:29:46.968Z,100.00
2018-03-30T06:32:14.641Z,100.00
2018-03-30T06:34:42.340Z,100.00
2018-03-30T06:37:10.001Z,100.00
2018-03-30T06:39:37.694Z,100.00
2018-03-30T06:42:05.406Z,100.00
2018-03-30T06:44:33.111Z,100.00
2018-03-30T06:47:00.826Z,100.00
2018-03-30T06:49:28.511Z,100.00
2018-03-30T06:51:56.207Z,100.00
2018-03-30T06:54:23.915Z,100.00
2018-03-30T06:56:51.570Z,100.00
2018-03-30T06:59:19.337Z,100.00
2018-03-30T07:01:47.042Z,100.00
2018-03-30T07:04:14.789Z,100.00
2018-03-30T07:06:42.518Z,100.00
2018-03-30T07:09:10.268Z,100.00
2018-03-30T07:11:37.983Z,100.00
2018-03-30T07:14:05.730Z,100.00
2018-03-30T07:16:33.403Z,100.00
2018-03-30T07:19:01.127Z,100.00
2018-03-30T07:21:28.849Z,100.00
2018-03-30T07:23:56.531Z,100.00
2018-03-30T07:26:24.238Z,100.00
2018-03-30T07:28:52.230Z,100.00
2018-03-30T07:31:19.968Z,100.00
2018-03-30T07:33:47.675Z,100.00
2018-03-30T07:36:15.427Z,100.00
2018-03-30T07:38:43.147Z,100.00
2018-03-30T07:41:10.907Z,100.00
2018-03-30T07:43:38.619Z,100.00
2018-03-30T07:46:06.365Z,100.00
2018-03-30T07:48:34.071Z,100.00
2018-03-30T07:51:01.842Z,100.00
2018-03-30T07:53:29.553Z,100.00
2018-03-30T07:55:57.315Z,100.00
2018-03-30T07:58:25.035Z,100.00
2018-03-30T08:00:52.774Z,100.00
2018-03-30T08:03:20.478Z,100.00
2018-03-30T08:05:48.215Z,100.00
2018-03-30T08:08:15.914Z,100.00
2018-03-30T08:10:43.649Z,100.00
2018-03-30T08:13:11.330Z,100.00
2018-03-30T08:15:39.026Z,100.00
2018-03-30T08:18:06.740Z,100.00
2018-03-30T08:20:34.523Z,100.00
2018-03-30T08:23:02.243Z,100.00
2018-03-30T08:25:30.028Z,100.00
2018-03-30T08:27:57.766Z,100.00
2018-03-30T08:30:25.506Z,100.00
2018-03-30T08:32:53.229Z,100.00
2018-03-30T08:35:20.986Z,100.00
2018-03-30T08:37:48.714Z,100.00
2018-03-30T08:40:16.486Z,100.00
2018-03-30T08:42:44.167Z,100.00
2018-03-30T08:45:11.917Z,100.00
2018-03-30T08:47:39.638Z,100.00
2018-03-30T08:50:07.382Z,100.00
2018-03-30T08:52:35.056Z,100.00
2018-03-30T08:55:02.763Z,100.00
2018-03-30T08:57:30.531Z,100.00
2018-03-30T08:59:58.204Z,100.00
2018-03-30T09:02:25.920Z,100.00
2018-03-30T09:04:53.628Z,100.00
2018-03-30T09:07:21.363Z,100.00
2018-03-30T09:09:49.070Z,100.00
2018-03-30T09:12:16.809Z,100.00
2018-03-30T09:14:44.505Z,100.00
2018-03-30T09:17:12.298Z,100.00
2018-03-30T09:19:40.031Z,100.00
2018-03-30T09:22:07.755Z,100.00
2018-03-30T09:24:35.546Z,100.00
2018-03-30T09:27:03.330Z,100.00
2018-03-30T09:29:31.056Z,100.00
2018-03-30T09:31:58.806Z,100.00
2018-03-30T09:34:26.517Z,100.00
2018-03-30T09:36:54.272Z,100.00
2018-03-30T09:39:21.975Z,100.00
2018-03-30T09:41:49.730Z,100.00
2018-03-30T09:44:17.436Z,100.00
2018-03-30T09:46:45.128Z,100.00
2018-03-30T09:49:12.818Z,100.00
2018-03-30T09:51:40.523Z,100.00
2018-03-30T09:54:08.184Z,100.00
2018-03-30T09:56:35.880Z,100.00
2018-03-30T09:59:03.553Z,100.00
2018-03-30T10:01:31.320Z,100.00
2018-03-30T10:03:59.059Z,100.00
2018-03-30T10:06:26.765Z,100.00
2018-03-30T10:08:54.430Z,100.00
2018-03-30T10:11:22.330Z,100.00
2018-03-30T10:13:50.018Z,100.00
2018-03-30T10:16:17.723Z,100.00
2018-03-30T10:18:45.398Z,100.00
2018-03-30T10:21:13.118Z,100.00
2018-03-30T10:23:40.790Z,100.00
2018-03-30T10:26:08.476Z,100.00
2018-03-30T10:28:36.126Z,100.00
2018-03-30T10:31:03.821Z,100.00
2018-03-30T10:33:32.430Z,100.00
2018-03-30T10:36:00.128Z,100.00
2018-03-30T10:38:27.886Z,100.00
2018-03-30T10:40:55.534Z,100.00
2018-03-30T10:43:23.232Z,100.00
2018-03-30T10:45:50.918Z,97.97
2018-03-30T10:48:18.595Z,98.09
2018-03-30T10:50:46.257Z,99.87
2018-03-30T10:53:13.958Z,100.00
2018-03-30T10:55:41.591Z,100.00
2018-03-30T10:58:09.322Z,100.00
2018-03-30T11:00:36.979Z,100.00
2018-03-30T11:03:04.674Z,97.78
2018-03-30T11:05:32.310Z,96.51
2018-03-30T11:07:59.980Z,97.77
2018-03-30T11:10:27.602Z,97.42
2018-03-30T11:12:55.298Z,94.16
2018-03-30T11:15:22.940Z,97.35
2018-03-30T11:17:50.646Z,94.71
2018-03-30T11:20:18.298Z,93.88
2018-03-30T11:22:45.978Z,92.71
2018-03-30T11:25:13.651Z,97.88
2018-03-30T11:27:41.318Z,94.34
2018-03-30T11:30:08.959Z,90.88
2018-03-30T11:32:36.625Z,89.43
2018-03-30T11:35:04.235Z,87.54
2018-03-30T11:37:31.910Z,88.90
2018-03-30T11:39:59.550Z,91.00
2018-03-30T11:42:27.247Z,91.79
2018-03-30T11:44:54.885Z,90.14
2018-03-30T11:47:22.596Z,85.51
2018-03-30T11:49:50.251Z,85.93
2018-03-30T11:52:17.990Z,87.77
2018-03-30T11:54:45.702Z,91.28
2018-03-30T11:57:13.381Z,85.99
2018-03-30T11:59:41.110Z,82.82
2018-03-30T12:02:08.855Z,82.46
2018-03-30T12:04:36.530Z,82.58
2018-03-30T12:07:04.311Z,82.13
2018-03-30T12:09:31.969Z,83.29
2018-03-30T12:11:59.678Z,83.28
2018-03-30T12:14:27.356Z,83.16
2018-03-30T12:16:55.090Z,86.34
2018-03-30T12:19:22.790Z,86.66
2018-03-30T12:21:50.491Z,87.13
2018-03-30T12:24:18.254Z,87.43
2018-03-30T12:26:45.966Z,85.63
2018-03-30T12:29:13.710Z,87.85
2018-03-30T12:31:41.422Z,88.53
2018-03-30T12:34:09.151Z,87.65
2018-03-30T12:36:36.837Z,87.11
2018-03-30T12:39:04.621Z,85.50
2018-03-30T12:41:32.305Z,85.09
2018-03-30T12:44:00.066Z,86.48
2018-03-30T12:46:27.803Z,85.97
2018-03-30T12:48:55.527Z,86.89
2018-03-30T12:51:23.233Z,86.72
2018-03-30T12:53:50.976Z,90.06
2018-03-30T12:56:18.703Z,89.43
2018-03-30T12:58:46.435Z,85.31
2018-03-30T13:01:14.170Z,83.24
2018-03-30T13:03:41.896Z,85.87
2018-03-30T13:06:09.620Z,84.40
2018-03-30T13:08:37.370Z,84.66
2018-03-30T13:11:05.086Z,83.21
2018-03-30T13:13:34.720Z,83.49
2018-03-30T13:16:02.834Z,84.53
2018-03-30T13:18:30.921Z,86.51
2018-03-30T13:20:59.458Z,86.50
2018-03-30T13:23:27.274Z,85.54
2018-03-30T13:25:55.425Z,83.24
2018-03-30T13:28:23.222Z,82.33
2018-03-30T13:30:52.078Z,80.08
2018-03-30T13:33:20.559Z,82.26
2018-03-30T13:35:48.461Z,86.63
2018-03-30T13:38:16.756Z,85.01
2018-03-30T13:40:44.615Z,83.96
2018-03-30T13:43:13.447Z,84.14
2018-03-30T13:45:41.945Z,84.77
2018-03-30T13:48:09.870Z,83.98
2018-03-30T13:53:36.672Z,82.62
2018-03-30T13:56:06.866Z,82.21
2018-03-30T13:58:38.123Z,82.16
2018-03-30T14:01:21.503Z,82.24
2018-03-30T14:06:50.691Z,82.35
2018-03-30T14:09:27.970Z,81.85
2018-03-30T14:11:58.270Z,80.36
2018-03-30T14:14:26.030Z,80.96
2018-03-30T14:16:56.478Z,82.81
2018-03-30T14:19:27.809Z,82.27
2018-03-30T14:21:55.532Z,79.60
2018-03-30T14:24:24.120Z,77.33
2018-03-30T14:30:03.135Z,81.59
2018-03-30T14:32:36.522Z,80.81
2018-03-30T14:35:15.706Z,81.12
2018-03-30T14:40:45.144Z,78.75
2018-03-30T14:43:34.938Z,80.69
2018-03-30T14:46:21.531Z,82.62
2018-03-30T14:48:50.863Z,82.62
2018-03-30T14:51:39.354Z,80.28
2018-03-30T14:54:18.144Z,80.41
2018-03-30T14:56:50.751Z,80.15
2018-03-30T14:59:28.547Z,79.10
2018-03-30T15:02:02.182Z,80.14
2018-03-30T15:04:41.440Z,79.26
2018-03-30T15:07:12.858Z,79.33
2018-03-30T15:09:45.401Z,80.88
2018-03-30T15:18:20.922Z,83.89
2018-03-30T15:23:49.676Z,82.92
2018-03-30T15:29:33.453Z,82.28
2018-03-30T15:32:11.671Z,82.65
2018-03-30T15:34:40.982Z,83.00
2018-03-30T15:37:16.546Z,84.44
2018-03-30T15:39:46.115Z,83.28
2018-03-30T15:42:16.812Z,82.44
2018-03-30T15:44:45.243Z,84.67
2018-03-30T15:47:14.913Z,83.06
2018-03-30T15:49:42.722Z,83.94
2018-03-30T15:52:10.510Z,84.84
2018-03-30T15:54:38.251Z,85.57
2018-03-30T15:57:06.019Z,85.64
2018-03-30T15:59:33.843Z,85.42
2018-03-30T16:02:01.720Z,85.50
2018-03-30T16:04:29.613Z,86.56
2018-03-30T16:06:57.531Z,85.74
2018-03-30T16:09:28.704Z,85.42
2018-03-30T16:11:57.876Z,86.00
2018-03-30T16:14:25.595Z,87.11
2018-03-30T16:16:53.362Z,87.40
2018-03-30T16:19:20.607Z,87.98
2018-03-30T16:21:47.756Z,88.29
2018-03-30T16:24:14.904Z,88.81
2018-03-30T16:26:42.119Z,88.65
2018-03-30T16:29:09.269Z,88.28
2018-03-30T16:31:36.482Z,88.45
2018-03-30T16:34:03.693Z,89.05
2018-03-30T16:36:30.874Z,89.21
2018-03-30T16:38:58.355Z,89.71
2018-03-30T16:41:25.518Z,89.98
2018-03-30T16:43:52.746Z,89.35
2018-03-30T16:46:19.910Z,89.21
2018-03-30T16:48:47.070Z,90.22
2018-03-30T16:51:14.261Z,90.78
2018-03-30T16:53:41.386Z,90.91
2018-03-30T16:56:08.577Z,90.69
2018-03-30T16:58:35.833Z,90.52
2018-03-30T17:01:03.174Z,91.28
2018-03-30T17:03:30.301Z,91.42
2018-03-30T17:05:57.470Z,91.79
2018-03-30T17:08:24.670Z,91.74
2018-03-30T17:10:51.879Z,92.35
2018-03-30T17:13:19.112Z,92.51
2018-03-30T17:15:46.321Z,93.62
2018-03-30T17:18:13.482Z,93.41
2018-03-30T17:20:40.671Z,93.50
2018-03-30T17:23:07.833Z,93.78
2018-03-30T17:25:35.010Z,94.00
2018-03-30T17:28:02.236Z,94.32
2018-03-30T17:30:29.670Z,94.93
2018-03-30T17:32:56.878Z,96.01
2018-03-30T17:35:24.241Z,96.88
2018-03-30T17:37:51.402Z,97.86
2018-03-30T17:40:19.464Z,98.51
2018-03-30T17:42:46.892Z,98.76
2018-03-30T17:45:14.115Z,100.00
2018-03-30T17:47:41.270Z,100.00
2018-03-30T17:50:08.447Z,100.00
2018-03-30T17:52:35.638Z,100.00
2018-03-30T17:55:02.840Z,100.00
2018-03-30T17:57:30.029Z,100.00
2018-03-30T17:59:57.700Z,100.00
2018-03-30T18:02:25.473Z,100.00
2018-03-30T18:04:52.647Z,100.00
2018-03-30T18:07:19.881Z,100.00
2018-03-30T18:09:47.074Z,100.00
2018-03-30T18:12:14.273Z,100.00
2018-03-30T18:14:41.458Z,100.00
2018-03-30T18:17:08.631Z,100.00
2018-03-30T18:19:35.807Z,100.00
2018-03-30T18:22:03.009Z,100.00
2018-03-30T18:24:30.206Z,100.00
2018-03-30T18:26:57.447Z,100.00
2018-03-30T18:29:24.615Z,100.00
2018-03-30T18:31:51.827Z,100.00
2018-03-30T18:34:19.005Z,100.00
2018-03-30T18:36:46.190Z,100.00
2018-03-30T18:39:13.389Z,100.00
2018-03-30T18:41:40.543Z,100.00
2018-03-30T18:44:07.691Z,100.00
2018-03-30T18:46:34.845Z,100.00
2018-03-30T18:49:02.012Z,100.00
2018-03-30T18:51:29.231Z,100.00
2018-03-30T18:53:56.405Z,100.00
2018-03-30T18:56:24.322Z,100.00
2018-03-30T18:58:51.475Z,100.00
2018-03-30T19:01:18.729Z,100.00
2018-03-30T19:03:45.868Z,100.00
2018-03-30T19:06:13.054Z,100.00
2018-03-30T19:08:40.235Z,100.00
2018-03-30T19:11:07.420Z,100.00
2018-03-30T19:13:34.597Z,100.00
2018-03-30T19:16:01.773Z,100.00
2018-03-30T19:18:28.945Z,100.00
2018-03-30T19:20:56.128Z,100.00
2018-03-30T19:23:23.301Z,100.00
2018-03-30T19:25:50.463Z,100.00
2018-03-30T19:28:17.623Z,100.00
2018-03-30T19:30:44.814Z,100.00
2018-03-30T19:33:12.103Z,100.00
2018-03-30T19:35:39.297Z,100.00
2018-03-30T19:38:06.560Z,100.00
2018-03-30T19:40:33.696Z,100.00
2018-03-30T19:43:00.934Z,100.00
2018-03-30T19:45:28.090Z,100.00
2018-03-30T19:47:55.257Z,100.00
2018-03-30T19:50:22.440Z,100.00
2018-03-30T19:52:49.609Z,100.00
2018-03-30T19:55:16.745Z,100.00
2018-03-30T19:57:43.936Z,100.00
2018-03-30T20:00:11.174Z,100.00
2018-03-30T20:02:38.363Z,100.00
2018-03-30T20:05:05.521Z,100.00
2018-03-30T20:07:32.688Z,100.00
2018-03-30T20:09:59.846Z,100.00
2018-03-30T20:12:27.051Z,100.00
2018-03-30T20:14:54.266Z,100.00
2018-03-30T20:17:21.448Z,100.00
2018-03-30T20:19:48.578Z,100.00
2018-03-30T20:22:15.800Z,100.00
2018-03-30T20:24:42.941Z,100.00
2018-03-30T20:27:10.140Z,100.00
2018-03-30T20:29:37.335Z,100.00
2018-03-30T20:32:04.486Z,100.00
2018-03-30T20:34:31.645Z,100.00
2018-03-30T20:36:58.807Z,100.00
2018-03-30T20:39:25.970Z,100.00
2018-03-30T20:41:53.126Z,100.00
2018-03-30T20:44:20.243Z,100.00
2018-03-30T20:46:48.846Z,100.00
2018-03-30T20:49:16.103Z,100.00
2018-03-30T20:51:43.254Z,100.00
2018-03-30T20:54:10.405Z,100.00
2018-03-30T20:56:37.532Z,100.00
2018-03-30T20:59:04.753Z,100.00
2018-03-30T21:01:31.993Z,100.00
2018-03-30T21:03:59.190Z,100.00
2018-03-30T21:06:26.362Z,100.00
2018-03-30T21:08:53.542Z,100.00
2018-03-30T21:11:20.737Z,100.00
2018-03-30T21:13:47.994Z,100.00
2018-03-30T21:16:15.180Z,100.00
2018-03-30T21:18:42.422Z,100.00
2018-03-30T21:21:10.065Z,100.00
2018-03-30T21:23:37.323Z,100.00
2018-03-30T21:26:04.581Z,100.00
2018-03-30T21:28:31.838Z,100.00
2018-03-30T21:30:59.015Z,100.00
2018-03-30T21:33:26.243Z,100.00
2018-03-30T21:35:53.392Z,100.00
2018-03-30T21:38:20.670Z,100.00
2018-03-30T21:40:47.931Z,100.00
2018-03-30T21:43:15.159Z,100.00
2018-03-30T21:45:42.437Z,100.00
2018-03-30T21:48:09.615Z,100.00
2018-03-30T21:50:36.751Z,100.00
2018-03-30T21:53:03.961Z,100.00
2018-03-30T21:55:31.105Z,100.00
2018-03-30T21:57:58.296Z,100.00
2018-03-30T22:00:25.440Z,100.00
2018-03-30T22:02:52.589Z,100.00
2018-03-30T22:05:19.858Z,100.00
2018-03-30T22:07:47.118Z,100.00
2018-03-30T22:10:14.302Z,100.00
2018-03-30T22:12:41.566Z,100.00
2018-03-30T22:15:13.100Z,100.00
2018-03-30T22:17:40.268Z,100.00
2018-03-30T22:20:07.462Z,100.00
2018-03-30T22:22:34.671Z,100.00
2018-03-30T22:25:01.822Z,100.00
2018-03-30T22:27:29.026Z,100.00
2018-03-30T22:29:56.201Z,100.00
2018-03-30T22:32:23.454Z,100.00
2018-03-30T22:34:50.635Z,100.00
2018-03-30T22:37:17.797Z,100.00
2018-03-30T22:39:44.994Z,100.00
2018-03-30T22:42:12.167Z,100.00
2018-03-30T22:44:39.367Z,100.00
2018-03-30T22:47:06.523Z,100.00
2018-03-30T22:49:34.659Z,100.00
2018-03-30T22:52:01.808Z,100.00
2018-03-30T22:54:28.973Z,100.00
2018-03-30T22:56:56.197Z,100.00
2018-03-30T22:59:23.440Z,100.00
2018-03-30T23:01:50.631Z,100.00
2018-03-30T23:04:17.982Z,100.00
2018-03-30T23:06:45.229Z,100.00
2018-03-30T23:09:12.390Z,100.00
2018-03-30T23:11:39.554Z,100.00
2018-03-30T23:14:06.702Z,100.00
2018-03-30T23:16:33.869Z,100.00
2018-03-30T23:19:01.018Z,100.00
2018-03-30T23:21:28.190Z,100.00
2018-03-30T23:23:55.373Z,100.00
2018-03-30T23:26:22.553Z,100.00
2018-03-30T23:28:49.704Z,100.00
2018-03-30T23:31:16.882Z,100.00
2018-03-30T23:33:44.045Z,100.00
2018-03-30T23:36:11.262Z,100.00
2018-03-30T23:38:38.435Z,100.00
2018-03-30T23:41:05.631Z,100.00
2018-03-30T23:43:32.816Z,100.00
2018-03-30T23:45:59.988Z,100.00
2018-03-30T23:48:27.182Z,100.00
2018-03-30T23:50:55.315Z,100.00
2018-03-30T23:53:22.457Z,100.00
2018-03-30T23:55:49.620Z,100.00
2018-03-30T23:58:16.783Z,100.00
